Terminal Aerodrome Forecast
Issued by NWS Pocatello, ID

Home | Current Version | Previous Version | Text Only | Print | Product List | Glossary On
Versions: 1 2 3 4 5 6 7 8 9 10 11 12 13 14 15 16 17 18 19 20 21 22
051
FTUS45 KPIH 112331
TAFIDA
TAF
KIDA 112331Z 1200/1224 36007KT P6SM SCT060 BKN080 BKN140
     FM120800 36007KT 6SM BR SCT004 SCT080 BKN130
     FM121300 VRB04KT 4SM BR BKN008 BKN080 OVC130
     FM121800 VRB04KT P6SM FEW008 SCT080 SCT130
     FM122100 VRB04KT P6SM SCT004 SCT200=

USA.gov is the U.S. government's official web portal to all federal, state and local government web resources and services.